Time;durP1;ratioP1;P1;durP2;ratioP2;P2;SDS_P1;SDS_P2;PMS_P1;PMS_P2;Temp;Humidity;BMP_temperature;BMP_pressure;BME280_temperature;BME280_humidity;BME280_pressure;Samples;Min_cycle;Max_cycle;Signal;HPM_P1;HPM_P2
2021/05/12 00:00:13;;;;;;;22.75;12.82;;;;;;;11.84;100.00;100579.16;6201811;28;20073;-79
2021/05/12 00:03:14;;;;;;;24.83;13.35;;;;;;;11.95;100.00;100588.19;6200866;28;20058;-80
2021/05/12 00:06:16;;;;;;;20.60;13.05;;;;;;;11.96;100.00;100587.25;6201969;28;20054;-79
2021/05/12 00:09:17;;;;;;;21.38;14.10;;;;;;;12.00;100.00;100588.75;6201458;28;20055;-78
2021/05/12 00:12:18;;;;;;;27.15;14.13;;;;;;;11.85;100.00;100585.25;6201125;28;20046;-80
2021/05/12 00:15:21;;;;;;;21.90;13.73;;;;;;;11.80;100.00;100579.41;6201408;28;20090;-78
2021/05/12 00:18:24;;;;;;;26.08;14.38;;;;;;;11.77;100.00;100580.44;6201058;28;20046;-79
2021/05/12 00:21:30;;;;;;;23.70;15.05;;;;;;;11.81;100.00;100587.22;6201412;28;20054;-78
2021/05/12 00:24:31;;;;;;;18.60;12.82;;;;;;;11.85;100.00;100596.63;6200861;28;20495;-79
2021/05/12 00:27:32;;;;;;;21.33;14.38;;;;;;;11.88;100.00;100596.47;6201267;28;20128;-78
2021/05/12 00:30:33;;;;;;;22.40;13.40;;;;;;;11.81;100.00;100588.97;6200812;28;20046;-78
2021/05/12 00:33:33;;;;;;;22.98;14.43;;;;;;;11.74;100.00;100585.91;6200985;28;20089;-79
2021/05/12 00:36:35;;;;;;;27.05;14.90;;;;;;;11.70;100.00;100592.28;6200624;28;20050;-78
2021/05/12 00:39:36;;;;;;;23.10;14.77;;;;;;;11.72;100.00;100592.19;6200674;28;20054;-78
2021/05/12 00:42:37;;;;;;;23.63;14.80;;;;;;;11.74;100.00;100596.44;6201241;28;20498;-78
2021/05/12 00:45:38;;;;;;;23.48;16.05;;;;;;;11.73;100.00;100604.44;6200906;28;20050;-78
2021/05/12 00:48:39;;;;;;;28.15;15.90;;;;;;;11.67;100.00;100598.59;6200426;28;20445;-79
2021/05/12 00:51:41;;;;;;;24.30;15.00;;;;;;;11.73;100.00;100599.16;6200265;28;20054;-78
2021/05/12 00:54:42;;;;;;;28.40;15.30;;;;;;;11.80;100.00;100597.81;6200708;28;20411;-79
2021/05/12 00:57:44;;;;;;;21.52;14.35;;;;;;;11.74;100.00;100591.16;6199989;28;20053;-79
2021/05/12 01:00:45;;;;;;;25.80;15.45;;;;;;;11.83;100.00;100588.00;6200388;28;20058;-79
2021/05/12 01:03:46;;;;;;;23.35;14.90;;;;;;;11.77;100.00;100590.13;6200013;28;20046;-78
2021/05/12 01:06:48;;;;;;;25.58;16.02;;;;;;;11.69;100.00;100586.16;6200186;28;20054;-79
2021/05/12 01:09:48;;;;;;;23.95;16.52;;;;;;;11.63;100.00;100581.28;6200553;28;20077;-80
2021/05/12 01:12:50;;;;;;;22.52;15.98;;;;;;;11.78;100.00;100584.78;6200214;28;20047;-81
2021/05/12 01:15:51;;;;;;;25.52;17.02;;;;;;;11.71;100.00;100593.13;6199115;28;20523;-81
2021/05/12 01:18:52;;;;;;;25.15;17.02;;;;;;;11.77;100.00;100590.13;6200392;28;20050;-81
2021/05/12 01:21:54;;;;;;;27.60;18.10;;;;;;;11.61;100.00;100595.47;6200028;28;20516;-81
2021/05/12 01:24:55;;;;;;;29.17;17.67;;;;;;;11.62;100.00;100598.00;6200036;28;20066;-81
2021/05/12 01:27:56;;;;;;;28.10;18.23;;;;;;;11.64;100.00;100597.94;6199877;28;20543;-81
2021/05/12 01:30:58;;;;;;;30.65;20.02;;;;;;;11.57;100.00;100602.69;6200432;28;20054;-80
2021/05/12 01:34:01;;;;;;;31.05;17.98;;;;;;;11.57;100.00;100609.75;6199564;28;20426;-81
2021/05/12 01:37:02;;;;;;;32.75;19.23;;;;;;;11.55;100.00;100596.69;6200207;28;20050;-81
2021/05/12 01:40:06;;;;;;;28.50;17.67;;;;;;;11.50;100.00;100604.00;6199914;28;20054;-80
2021/05/12 01:43:07;;;;;;;33.38;19.02;;;;;;;11.47;100.00;100596.28;6199486;28;20062;-80
2021/05/12 01:46:09;;;;;;;32.88;18.63;;;;;;;11.47;100.00;100595.44;6199323;28;20415;-80
2021/05/12 01:49:11;;;;;;;30.17;18.85;;;;;;;11.48;100.00;100600.59;6198879;28;20462;-80
2021/05/12 01:52:13;;;;;;;33.45;20.75;;;;;;;11.46;100.00;100602.50;6199472;28;20046;-80
2021/05/12 01:55:15;;;;;;;26.85;18.38;;;;;;;11.57;100.00;100605.31;6199272;28;20046;-80
2021/05/12 01:58:17;;;;;;;33.58;18.02;;;;;;;11.54;100.00;100609.94;6199635;28;20077;-80
2021/05/12 02:01:17;;;;;;;29.02;17.33;;;;;;;11.48;100.00;100607.66;6199773;28;20050;-80
2021/05/12 02:04:18;;;;;;;31.17;19.20;;;;;;;11.50;100.00;100597.91;6198954;28;20081;-81
2021/05/12 02:07:20;;;;;;;36.28;21.17;;;;;;;11.46;100.00;100597.25;6199259;28;20569;-80
2021/05/12 02:10:22;;;;;;;35.63;21.02;;;;;;;11.43;100.00;100598.25;6198991;28;20054;-81
2021/05/12 02:13:25;;;;;;;40.03;20.90;;;;;;;11.54;100.00;100599.44;6199409;28;20410;-80
2021/05/12 02:16:25;;;;;;;30.42;19.90;;;;;;;11.58;100.00;100588.63;6198940;28;20046;-81
2021/05/12 02:19:27;;;;;;;37.08;22.25;;;;;;;11.46;100.00;100594.59;6198895;28;20050;-81
2021/05/12 02:22:29;;;;;;;32.75;21.52;;;;;;;11.49;100.00;100593.56;6199122;28;20076;-81
2021/05/12 02:25:31;;;;;;;39.90;22.40;;;;;;;11.40;100.00;100594.97;6198437;28;20042;-80
2021/05/12 02:28:32;;;;;;;36.10;21.15;;;;;;;11.53;100.00;100590.66;6206285;28;20093;-81
2021/05/12 02:31:32;;;;;;;40.53;23.42;;;;;;;11.48;100.00;100581.34;6207154;28;20054;-81
2021/05/12 02:34:33;;;;;;;49.65;25.40;;;;;;;11.43;100.00;100586.88;6206943;28;20391;-80
2021/05/12 02:37:36;;;;;;;44.15;27.58;;;;;;;11.34;100.00;100600.59;6207305;28;20047;-80
2021/05/12 02:40:37;;;;;;;40.38;25.35;;;;;;;11.43;100.00;100600.03;6207164;28;20053;-81
2021/05/12 02:43:38;;;;;;;43.70;27.33;;;;;;;11.37;100.00;100598.63;6207007;28;20046;-81
2021/05/12 02:46:39;;;;;;;51.75;29.15;;;;;;;11.46;100.00;100606.91;6207004;28;20104;-83
2021/05/12 02:49:40;;;;;;;56.78;31.20;;;;;;;11.33;100.00;100617.31;6206945;28;20558;-80
2021/05/12 02:52:42;;;;;;;63.88;32.17;;;;;;;11.34;100.00;100614.59;6207329;28;20498;-80
2021/05/12 02:55:43;;;;;;;67.88;33.85;;;;;;;11.29;100.00;100616.63;6206486;28;20046;-80
2021/05/12 02:58:44;;;;;;;58.00;32.05;;;;;;;11.32;100.00;100613.00;6207048;28;20050;-83
2021/05/12 03:01:44;;;;;;;55.15;32.92;;;;;;;11.42;100.00;100617.63;6206559;28;20054;-81
2021/05/12 03:04:46;;;;;;;57.80;32.75;;;;;;;11.35;100.00;100620.69;6206508;28;20053;-81
2021/05/12 03:07:48;;;;;;;53.90;31.92;;;;;;;11.50;100.00;100619.81;6207318;28;20100;-85
2021/05/12 03:10:49;;;;;;;55.47;31.83;;;;;;;11.56;100.00;100626.47;6206884;28;20053;-83
2021/05/12 03:13:50;;;;;;;49.83;32.28;;;;;;;11.51;100.00;100629.38;6206475;28;20457;-81
2021/05/12 03:16:51;;;;;;;51.03;33.20;;;;;;;11.46;100.00;100627.97;6206770;28;20050;-82
2021/05/12 03:19:52;;;;;;;50.55;32.28;;;;;;;11.51;100.00;100625.91;6206919;28;20053;-81
2021/05/12 03:22:54;;;;;;;58.13;34.20;;;;;;;11.39;100.00;100623.06;6206332;28;20046;-81
2021/05/12 03:25:55;;;;;;;54.28;33.22;;;;;;;11.39;100.00;100614.31;6206137;28;20046;-81
2021/05/12 03:28:56;;;;;;;53.97;32.55;;;;;;;11.35;100.00;100613.63;6206192;28;20434;-81
2021/05/12 03:31:57;;;;;;;50.05;31.13;;;;;;;11.45;100.00;100613.97;6206751;28;20096;-81
2021/05/12 03:34:58;;;;;;;49.17;31.05;;;;;;;11.39;100.00;100624.84;6206559;28;20050;-80
2021/05/12 03:38:00;;;;;;;57.05;31.33;;;;;;;11.35;100.00;100629.44;6204641;28;20058;-80
2021/05/12 03:41:01;;;;;;;50.65;30.73;;;;;;;11.39;100.00;100627.47;6203048;28;20062;-83
2021/05/12 03:44:03;;;;;;;50.35;30.35;;;;;;;11.46;100.00;100628.81;6202642;28;20050;-81
2021/05/12 03:47:04;;;;;;;49.63;30.33;;;;;;;11.38;100.00;100629.25;6202703;28;20152;-81
2021/05/12 03:50:07;;;;;;;56.38;31.58;;;;;;;11.32;100.00;100627.00;6202758;28;20404;-80
2021/05/12 03:53:09;;;;;;;51.15;30.90;;;;;;;11.56;100.00;100634.38;6202504;28;20097;-81
2021/05/12 03:56:10;;;;;;;56.80;32.30;;;;;;;11.40;100.00;100635.28;6202185;28;20050;-81
2021/05/12 03:59:11;;;;;;;59.40;32.13;;;;;;;11.42;100.00;100649.19;6202148;28;20046;-81
2021/05/12 04:02:12;;;;;;;56.55;30.23;;;;;;;11.45;100.00;100640.28;6202453;28;20055;-81
2021/05/12 04:05:15;;;;;;;55.22;31.75;;;;;;;11.59;100.00;100644.72;6201939;28;20057;-79
2021/05/12 04:08:16;;;;;;;54.72;30.42;;;;;;;11.43;100.00;100639.50;6202482;28;20459;-81
2021/05/12 04:11:17;;;;;;;52.40;30.27;;;;;;;11.54;100.00;100638.91;6202212;28;20054;-82
2021/05/12 04:14:18;;;;;;;56.10;32.08;;;;;;;11.41;100.00;100644.03;6202088;28;20502;-80
2021/05/12 04:17:19;;;;;;;50.33;30.00;;;;;;;11.54;100.00;100638.91;6201652;28;20121;-81
2021/05/12 04:20:22;;;;;;;50.40;29.77;;;;;;;11.53;100.00;100655.59;6201852;28;20077;-82
2021/05/12 04:23:23;;;;;;;51.17;29.48;;;;;;;11.46;100.00;100647.22;6201514;28;20046;-83
2021/05/12 04:26:24;;;;;;;52.85;30.95;;;;;;;11.48;100.00;100653.25;6201369;28;20047;-83
2021/05/12 04:29:25;;;;;;;58.17;32.15;;;;;;;11.48;100.00;100655.03;6201397;28;20054;-83
2021/05/12 04:32:26;;;;;;;56.90;31.42;;;;;;;11.47;100.00;100656.81;6201398;28;20070;-81
2021/05/12 04:35:29;;;;;;;58.28;31.92;;;;;;;11.47;100.00;100655.97;6201447;28;20503;-81
2021/05/12 04:38:30;;;;;;;56.35;30.42;;;;;;;11.52;100.00;100661.81;6201104;28;20050;-82
2021/05/12 04:41:32;;;;;;;51.63;30.08;;;;;;;11.50;100.00;100667.19;6201556;28;20050;-82
2021/05/12 04:44:33;;;;;;;51.17;27.92;;;;;;;11.64;100.00;100663.72;6200623;28;20069;-83
2021/05/12 04:47:34;;;;;;;48.45;29.25;;;;;;;11.53;100.00;100659.06;6200933;28;20054;-82
2021/05/12 04:50:35;;;;;;;48.38;27.42;;;;;;;11.56;100.00;100665.97;6199889;28;20046;-82
2021/05/12 04:53:37;;;;;;;46.08;27.15;;;;;;;11.60;100.00;100672.75;6200489;28;20050;-81
2021/05/12 04:56:38;;;;;;;45.50;25.42;;;;;;;11.65;100.00;100668.06;6200654;28;20057;-82
2021/05/12 04:59:39;;;;;;;50.45;26.63;;;;;;;11.65;100.00;100673.31;6200856;28;20050;-83
2021/05/12 05:02:40;;;;;;;40.72;23.90;;;;;;;11.93;100.00;100672.53;6200954;28;20065;-81
2021/05/12 05:05:41;;;;;;;43.70;25.10;;;;;;;12.00;100.00;100667.78;6201825;28;20415;-81
2021/05/12 05:08:44;;;;;;;45.08;24.00;;;;;;;11.91;100.00;100664.75;6201293;28;20137;-83
2021/05/12 05:11:44;;;;;;;44.05;24.05;;;;;;;11.67;100.00;100667.03;6201759;28;20510;-83
2021/05/12 05:14:45;;;;;;;38.58;23.98;;;;;;;11.77;100.00;100680.50;6193552;28;20050;-82
2021/05/12 05:17:49;;;;;;;40.88;21.83;;;;;;;12.02;100.00;100679.03;6200194;28;20060;-82
2021/05/12 05:20:53;;;;;;;37.75;22.38;;;;;;;11.89;100.00;100686.84;6201186;28;20157;-82
2021/05/12 05:23:55;;;;;;;39.08;22.52;;;;;;;11.90;100.00;100686.75;6200357;28;20050;-82
2021/05/12 05:26:56;;;;;;;37.60;22.08;;;;;;;11.69;100.00;100695.88;6200225;28;20047;-81
2021/05/12 05:29:57;;;;;;;38.15;21.92;;;;;;;11.63;100.00;100698.91;6200104;28;20060;-80
2021/05/12 05:32:58;;;;;;;43.42;22.27;;;;;;;11.67;100.00;100695.13;6199533;28;20046;-82
2021/05/12 05:35:59;;;;;;;38.72;22.73;;;;;;;11.69;100.00;100699.38;6200004;28;20130;-82
2021/05/12 05:39:01;;;;;;;41.28;22.50;;;;;;;11.73;100.00;100693.94;6200038;28;20046;-82
2021/05/12 05:42:03;;;;;;;43.95;23.40;;;;;;;11.74;100.00;100706.16;6199591;28;20046;-82
2021/05/12 05:45:06;;;;;;;38.55;21.70;;;;;;;11.68;100.00;100707.38;6199349;28;20138;-82
2021/05/12 05:48:07;;;;;;;47.10;23.25;;;;;;;11.70;100.00;100716.00;6199429;28;20545;-81
2021/05/12 05:51:08;;;;;;;32.83;20.48;;;;;;;11.75;100.00;100721.00;6199233;28;20054;-82
2021/05/12 05:54:10;;;;;;;40.70;20.70;;;;;;;11.70;100.00;100726.53;6199598;28;20085;-82
2021/05/12 05:57:14;;;;;;;38.55;20.00;;;;;;;11.81;100.00;100728.53;6199085;28;20054;-82
2021/05/12 06:00:17;;;;;;;30.95;19.15;;;;;;;11.95;100.00;100723.34;6199339;28;20058;-82
2021/05/12 06:03:18;;;;;;;37.50;19.48;;;;;;;11.93;100.00;100736.59;6198901;28;20050;-82
2021/05/12 06:06:19;;;;;;;31.23;18.73;;;;;;;11.81;100.00;100728.53;6199672;28;20046;-80
2021/05/12 06:09:21;;;;;;;30.80;18.80;;;;;;;11.78;100.00;100726.09;6199282;28;20065;-81
2021/05/12 06:12:22;;;;;;;43.05;18.85;;;;;;;11.86;100.00;100722.13;6200145;28;20054;-81
2021/05/12 06:15:23;;;;;;;26.33;16.40;;;;;;;11.87;100.00;100726.44;6201504;28;20070;-81
2021/05/12 06:18:24;;;;;;;26.48;15.18;;;;;;;12.15;100.00;100736.16;6199808;28;20529;-82
2021/05/12 06:21:26;;;;;;;29.00;15.25;;;;;;;12.02;100.00;100739.63;6201047;28;20074;-82
2021/05/12 06:24:28;;;;;;;25.45;14.38;;;;;;;12.07;100.00;100733.13;6199800;28;20054;-82
2021/05/12 06:27:29;;;;;;;23.90;14.48;;;;;;;12.05;100.00;100735.03;6199589;28;20053;-83
2021/05/12 06:30:30;;;;;;;24.15;12.98;;;;;;;12.12;100.00;100735.50;6199200;28;20477;-81
2021/05/12 06:33:31;;;;;;;22.00;14.40;;;;;;;11.88;100.00;100732.53;6198990;28;20415;-81
2021/05/12 06:36:32;;;;;;;21.55;12.48;;;;;;;12.13;100.00;100737.22;6198783;28;20058;-82
2021/05/12 06:39:34;;;;;;;25.35;12.60;;;;;;;12.15;98.75;100738.81;6200260;28;20412;-83
2021/05/12 06:42:35;;;;;;;23.02;13.27;;;;;;;12.12;99.19;100744.25;6199640;28;20065;-83
2021/05/12 06:45:36;;;;;;;21.65;12.90;;;;;;;12.04;100.00;100737.75;6198425;28;20043;-82
2021/05/12 06:48:37;;;;;;;20.42;12.90;;;;;;;11.96;100.00;100740.84;6198353;28;20134;-83
2021/05/12 06:51:37;;;;;;;18.38;12.48;;;;;;;11.98;100.00;100743.38;6198794;28;20704;-82
2021/05/12 06:54:39;;;;;;;25.58;13.38;;;;;;;11.99;100.00;100748.56;6198642;28;20506;-82
2021/05/12 06:57:40;;;;;;;19.60;12.15;;;;;;;12.34;98.69;100748.22;6198857;28;20054;-82
2021/05/12 07:00:41;;;;;;;20.77;12.95;;;;;;;12.22;99.32;100752.47;6199326;28;20208;-83
2021/05/12 07:03:42;;;;;;;19.80;13.40;;;;;;;12.05;100.00;100750.00;6198598;28;20050;-83
2021/05/12 07:06:43;;;;;;;20.13;12.60;;;;;;;12.05;100.00;100748.19;6198769;28;20050;-82
2021/05/12 07:09:44;;;;;;;23.80;12.43;;;;;;;12.12;99.97;100743.41;6223846;22;20462;-77
2021/05/12 07:12:45;;;;;;;21.83;12.13;;;;;;;12.42;98.42;100753.88;6196416;28;20046;-77
2021/05/12 07:15:46;;;;;;;21.08;12.95;;;;;;;12.15;100.00;100756.41;6202313;28;20050;-77
2021/05/12 07:18:47;;;;;;;26.08;12.93;;;;;;;12.18;99.63;100764.13;6179968;28;20086;-78
2021/05/12 07:21:48;;;;;;;19.65;12.50;;;;;;;12.10;99.79;100769.84;6194576;28;20495;-77
2021/05/12 07:24:50;;;;;;;16.92;11.70;;;;;;;12.10;99.17;100764.56;6204701;28;20116;-79
2021/05/12 07:27:51;;;;;;;22.20;11.85;;;;;;;12.29;97.11;100771.38;6194634;28;20057;-79
2021/05/12 07:30:52;;;;;;;18.23;11.40;;;;;;;12.42;97.55;100770.53;6202828;28;20081;-77
2021/05/12 07:33:53;;;;;;;19.70;11.32;;;;;;;12.27;96.79;100774.13;6204724;28;20093;-77
2021/05/12 07:36:54;;;;;;;16.38;11.30;;;;;;;12.23;97.71;100784.94;6203931;28;20074;-79
2021/05/12 07:39:56;;;;;;;17.63;11.25;;;;;;;12.30;98.46;100787.09;6203631;28;20053;-79
2021/05/12 07:42:58;;;;;;;19.10;10.27;;;;;;;12.65;95.93;100799.94;6203661;28;20065;-80
2021/05/12 07:46:00;;;;;;;18.35;11.60;;;;;;;12.37;97.49;100790.22;6204834;28;20129;-80
2021/05/12 07:49:01;;;;;;;21.30;12.25;;;;;;;12.29;97.53;100795.09;6195865;28;20046;-79
2021/05/12 07:52:03;;;;;;;17.33;11.38;;;;;;;12.29;100.00;100789.81;6203553;28;20074;-79
2021/05/12 07:55:06;;;;;;;16.95;10.63;;;;;;;12.50;96.48;100798.25;6191267;28;20126;-78
2021/05/12 07:58:07;;;;;;;15.63;9.77;;;;;;;12.39;97.14;100802.34;6190511;28;20089;-78
2021/05/12 08:01:17;;;;;;;17.38;10.38;;;;;;;12.61;94.64;100806.34;6203591;28;20058;-78
2021/05/12 08:04:18;;;;;;;11.55;7.85;;;;;;;12.57;95.66;100805.66;6200713;28;20050;-79
2021/05/12 08:07:19;;;;;;;16.30;8.30;;;;;;;12.99;92.79;100804.00;6202020;28;20507;-78
2021/05/12 08:10:21;;;;;;;18.05;8.93;;;;;;;12.70;93.37;100808.41;6201138;28;20058;-79
2021/05/12 08:13:21;;;;;;;12.98;8.85;;;;;;;12.66;94.01;100805.09;6201016;28;20058;-77
2021/05/12 08:16:22;;;;;;;15.20;9.13;;;;;;;12.86;92.73;100816.25;6206024;28;20054;-78
2021/05/12 08:19:23;;;;;;;16.52;9.00;;;;;;;13.01;92.92;100812.63;6205590;28;20553;-79
2021/05/12 08:22:24;;;;;;;15.55;8.77;;;;;;;13.06;89.65;100807.91;6208293;28;20061;-78
2021/05/12 08:25:26;;;;;;;12.45;7.88;;;;;;;13.12;89.28;100819.88;6210615;28;20070;-78
2021/05/12 08:28:27;;;;;;;16.83;8.07;;;;;;;12.97;92.59;100807.66;6203394;28;20050;-77
2021/05/12 08:31:29;;;;;;;13.75;8.90;;;;;;;13.01;90.26;100817.91;6202462;28;20054;-78
2021/05/12 08:34:31;;;;;;;13.70;8.40;;;;;;;13.25;87.76;100818.19;6206628;28;20518;-77
2021/05/12 08:37:31;;;;;;;13.07;8.98;;;;;;;13.09;89.65;100825.38;6202472;28;20050;-78
2021/05/12 08:40:34;;;;;;;12.98;8.57;;;;;;;12.94;91.34;100822.75;6201483;28;20050;-77
2021/05/12 08:43:35;;;;;;;16.63;9.95;;;;;;;12.96;90.94;100812.09;6198443;28;20046;-78
2021/05/12 08:46:39;;;;;;;13.60;9.60;;;;;;;12.88;92.19;100819.63;6207480;28;20053;-78
2021/05/12 08:49:41;;;;;;;16.48;9.98;;;;;;;12.89;92.83;100818.66;6201980;28;20090;-78
2021/05/12 08:52:43;;;;;;;18.13;10.13;;;;;;;13.08;93.57;100828.91;6202137;28;20058;-78
2021/05/12 08:55:45;;;;;;;15.32;9.85;;;;;;;13.11;91.20;100826.09;6201066;28;20046;-77
2021/05/12 08:58:46;;;;;;;12.93;9.02;;;;;;;13.20;90.94;100817.59;6202182;28;20050;-78
2021/05/12 09:01:46;;;;;;;15.80;9.95;;;;;;;13.27;90.77;100832.16;6202193;28;20185;-79
2021/05/12 09:04:48;;;;;;;15.82;10.30;;;;;;;13.42;88.63;100825.03;6206625;28;20046;-77
2021/05/12 09:07:49;;;;;;;21.13;9.95;;;;;;;13.42;87.88;100825.03;6204408;28;20054;-77
2021/05/12 09:10:50;;;;;;;16.05;9.93;;;;;;;13.54;85.22;100831.34;6206656;28;20068;-77
2021/05/12 09:13:51;;;;;;;15.63;9.95;;;;;;;13.43;85.40;100824.09;6196209;28;20050;-78
2021/05/12 09:16:52;;;;;;;14.70;10.07;;;;;;;13.37;87.59;100829.78;6201112;28;20065;-78
2021/05/12 09:19:53;;;;;;;48.13;12.50;;;;;;;13.44;86.70;100826.66;6201561;28;20426;-78
2021/05/12 09:23:12;;;;;;;17.17;9.63;;;;;;;13.60;87.11;100823.03;6204008;28;20081;-77
2021/05/12 09:26:15;;;;;;;13.65;9.05;;;;;;;13.86;85.56;100816.88;6201972;28;20050;-78
2021/05/12 09:29:29;;;;;;;11.23;8.45;;;;;;;13.84;84.83;100817.91;6201975;28;20074;-79
2021/05/12 09:32:42;;;;;;;16.17;8.23;;;;;;;14.05;81.09;100811.22;6201212;28;20054;-78
2021/05/12 09:35:44;;;;;;;11.88;7.97;;;;;;;14.05;81.04;100826.22;6198048;28;20050;-79
2021/05/12 09:38:53;;;;;;;15.00;9.32;;;;;;;14.04;81.21;100817.47;6198006;28;20077;-78
2021/05/12 09:41:55;;;;;;;17.67;9.52;;;;;;;13.81;84.79;100819.00;6177778;28;20058;-77
2021/05/12 09:45:10;;;;;;;16.50;9.38;;;;;;;13.91;85.81;100827.16;6184767;28;20474;-77
2021/05/12 09:48:11;;;;;;;12.18;8.52;;;;;;;13.84;84.30;100824.06;6198365;28;20050;-77
2021/05/12 09:51:19;;;;;;;18.80;10.00;;;;;;;13.66;86.94;100827.88;6198517;28;20050;-77
2021/05/12 09:54:22;;;;;;;13.65;9.57;;;;;;;13.75;84.69;100827.28;6198152;28;20137;-77
2021/05/12 09:57:23;;;;;;;13.73;9.10;;;;;;;13.73;85.48;100823.91;6206525;28;20046;-78
2021/05/12 10:00:26;;;;;;;14.52;8.90;;;;;;;13.93;84.16;100830.53;6198488;28;20058;-73
2021/05/12 10:03:32;;;;;;;12.38;7.97;;;;;;;13.99;83.63;100826.63;6196113;28;20046;-77
2021/05/12 10:06:33;;;;;;;13.07;8.70;;;;;;;14.21;81.71;100811.88;6181477;28;20082;-77
2021/05/12 10:09:34;;;;;;;17.88;10.05;;;;;;;14.34;81.08;100816.34;6173931;28;20466;-76
2021/05/12 10:12:36;;;;;;;30.17;10.98;;;;;;;14.40;79.79;100816.78;6173827;28;20055;-76
2021/05/12 10:15:37;;;;;;;40.85;9.30;;;;;;;14.47;78.49;100820.69;6172213;28;20058;-77
2021/05/12 10:18:38;;;;;;;13.35;7.50;;;;;;;14.33;79.72;100826.06;6175491;28;20078;-79
2021/05/12 10:21:39;;;;;;;16.05;8.43;;;;;;;14.53;79.28;100827.38;6173896;28;20143;-77
2021/05/12 10:24:41;;;;;;;13.75;8.45;;;;;;;14.52;80.68;100830.97;6178659;28;20046;-78
2021/05/12 10:27:44;;;;;;;13.13;8.00;;;;;;;14.90;74.94;100825.69;6179047;28;20054;-78
2021/05/12 10:30:47;;;;;;;18.83;8.23;;;;;;;14.67;76.65;100826.41;6181229;28;20054;-78
2021/05/12 10:33:51;;;;;;;14.10;7.43;;;;;;;14.97;76.18;100821.66;6181791;28;20066;-79
2021/05/12 10:37:15;;;;;;;12.10;7.28;;;;;;;14.85;78.07;100835.75;6179203;28;20140;-78
2021/05/12 10:40:20;;;;;;;15.30;7.00;;;;;;;14.87;76.08;100828.53;6178351;28;20471;-79
2021/05/12 10:43:25;;;;;;;10.20;7.30;;;;;;;15.01;76.48;100829.38;6174841;28;20471;-79
2021/05/12 10:46:29;;;;;;;9.88;6.70;;;;;;;15.06;75.13;100830.75;6175988;28;20419;-79
2021/05/12 10:49:30;;;;;;;11.45;6.55;;;;;;;14.85;76.23;100834.88;6180117;28;20085;-80
2021/05/12 10:52:31;;;;;;;14.27;7.93;;;;;;;14.97;75.39;100829.59;6187219;28;20050;-73
2021/05/12 10:56:05;;;;;;;11.52;6.38;;;;;;;15.07;73.16;100826.28;6213038;28;20076;-78
2021/05/12 10:59:10;;;;;;;12.02;6.75;;;;;;;15.05;73.58;100815.81;6206172;28;20494;-80
2021/05/12 11:02:11;;;;;;;11.63;6.18;;;;;;;15.24;73.29;100823.28;6198671;28;20054;-80
2021/05/12 11:05:12;;;;;;;17.77;8.65;;;;;;;15.16;73.66;100822.97;6203982;28;20042;-80
2021/05/12 11:08:15;;;;;;;15.27;9.30;;;;;;;15.23;73.82;100817.16;6203655;28;20047;-79
2021/05/12 11:11:16;;;;;;;11.75;7.95;;;;;;;15.23;73.76;100818.97;6203661;28;20052;-79
2021/05/12 11:14:22;;;;;;;14.70;8.80;;;;;;;14.98;75.75;100819.84;6202952;28;20085;-79
2021/05/12 11:17:45;;;;;;;17.65;7.40;;;;;;;15.34;73.24;100816.38;6204002;28;20487;-80
2021/05/12 11:20:46;;;;;;;16.98;7.80;;;;;;;15.60;71.44;100817.13;6203119;28;20415;-79
2021/05/12 11:24:10;;;;;;;12.27;6.68;;;;;;;15.84;70.35;100817.16;6203456;28;20474;-80
2021/05/12 11:27:19;;;;;;;14.10;7.63;;;;;;;15.87;71.51;100810.78;6203459;28;20061;-80
2021/05/12 11:33:40;;;;;;;14.55;6.68;;;;;;;16.35;68.42;100819.50;6203494;28;20560;-78
2021/05/12 11:36:41;;;;;;;11.20;6.60;;;;;;;16.03;69.69;100816.63;6204957;28;20097;-78
2021/05/12 11:39:46;;;;;;;13.48;7.18;;;;;;;15.95;69.36;100821.66;6203206;28;20414;-78
2021/05/12 11:42:48;;;;;;;15.88;5.85;;;;;;;16.15;71.33;100828.97;6203098;28;20651;-79
2021/05/12 11:45:50;;;;;;;17.42;5.78;;;;;;;16.82;63.78;100817.66;6203426;28;20463;-80
2021/05/12 11:48:52;;;;;;;8.85;5.35;;;;;;;16.91;64.25;100813.44;6202373;28;20404;-78
2021/05/12 11:51:58;;;;;;;9.73;4.13;;;;;;;16.95;61.52;100807.78;6203654;28;20077;-80
2021/05/12 11:55:05;;;;;;;7.03;3.95;;;;;;;16.90;63.64;100820.56;6202580;28;20051;-78
2021/05/12 11:58:10;;;;;;;7.07;4.47;;;;;;;16.84;63.75;100818.38;6200850;28;20396;-77
2021/05/12 12:01:13;;;;;;;6.75;4.10;;;;;;;16.86;64.83;100816.47;6200836;28;20101;-78
2021/05/12 12:04:22;;;;;;;11.48;4.45;;;;;;;16.66;66.94;100822.44;6200642;28;20050;-77
2021/05/12 12:07:23;;;;;;;13.80;5.25;;;;;;;16.35;67.66;100814.22;6201288;28;20046;-77
2021/05/12 12:10:24;;;;;;;14.70;5.15;;;;;;;16.03;68.77;100805.16;6200635;28;20046;-77
2021/05/12 12:13:25;;;;;;;9.15;4.50;;;;;;;15.82;69.19;100803.19;6200571;28;20114;-76
2021/05/12 12:16:26;;;;;;;9.30;3.97;;;;;;;16.00;71.81;100813.38;6200716;28;20042;-72
2021/05/12 12:19:27;;;;;;;15.57;4.10;;;;;;;16.14;69.28;100806.06;6200392;28;20054;-73
2021/05/12 12:22:28;;;;;;;6.85;3.05;;;;;;;16.53;62.79;100801.31;6200625;28;20051;-76
2021/05/12 12:25:34;;;;;;;6.78;2.95;;;;;;;16.86;62.07;100805.84;6200282;28;20517;-73
2021/05/12 12:28:35;;;;;;;6.10;2.65;;;;;;;17.05;62.62;100799.06;6200237;28;20400;-72
2021/05/12 12:31:42;;;;;;;7.28;2.80;;;;;;;17.39;62.53;100798.03;6199941;28;20050;-73
2021/05/12 12:34:46;;;;;;;3.05;2.05;;;;;;;17.58;62.34;100799.22;6200132;28;20054;-72
2021/05/12 12:37:47;;;;;;;10.05;2.22;;;;;;;17.42;56.67;100800.44;6200058;28;20109;-73
2021/05/12 12:40:48;;;;;;;9.43;2.70;;;;;;;16.79;59.47;100799.31;6200154;28;20133;-76
2021/05/12 12:43:50;;;;;;;7.03;3.30;;;;;;;16.70;61.17;100802.66;6200195;28;20066;-76
2021/05/12 12:46:58;;;;;;;6.65;1.80;;;;;;;16.92;55.64;100793.88;6204071;28;20046;-76
2021/05/12 12:50:01;;;;;;;28.90;3.60;;;;;;;16.94;56.40;100789.28;6205436;28;20054;-76
2021/05/12 12:53:05;;;;;;;190.05;16.77;;;;;;;17.05;56.44;100780.50;6195377;28;20062;-76
2021/05/12 12:56:07;;;;;;;2.53;1.48;;;;;;;16.94;56.03;100786.63;6200692;28;20042;-76
2021/05/12 12:59:11;;;;;;;12.98;2.33;;;;;;;17.02;55.41;100792.19;6200892;28;20050;-77
2021/05/12 13:02:12;;;;;;;5.68;1.70;;;;;;;16.92;55.55;100793.88;6200213;28;20120;-77
2021/05/12 13:05:15;;;;;;;5.88;1.77;;;;;;;16.76;57.31;100798.69;6200115;28;20043;-75
2021/05/12 13:08:22;;;;;;;4.15;1.98;;;;;;;16.79;59.11;100801.13;6225103;22;20058;-80
2021/05/12 13:11:22;;;;;;;6.45;2.35;;;;;;;16.60;59.12;100805.19;6248562;28;20046;-80
2021/05/12 13:14:24;;;;;;;8.27;2.15;;;;;;;16.88;59.14;100801.25;6241902;28;20049;-80
2021/05/12 13:17:29;;;;;;;7.95;1.40;;;;;;;16.94;62.48;100814.06;6249554;28;20506;-80
2021/05/12 13:20:32;;;;;;;11.18;2.88;;;;;;;16.88;57.67;100809.22;6249510;28;20071;-79
2021/05/12 13:23:34;;;;;;;4.15;1.92;;;;;;;16.66;60.48;100806.50;6247799;28;20049;-79
2021/05/12 13:26:38;;;;;;;17.40;2.47;;;;;;;16.93;58.08;100803.53;6240237;28;20521;-80
2021/05/12 13:29:39;;;;;;;5.30;1.60;;;;;;;16.77;57.87;100801.25;6248566;28;20045;-80
2021/05/12 13:32:41;;;;;;;6.18;1.60;;;;;;;17.01;57.46;100798.47;6248553;28;20049;-79
2021/05/12 13:35:42;;;;;;;4.78;1.60;;;;;;;16.98;56.22;100794.22;6230692;28;20391;-80
2021/05/12 13:38:43;;;;;;;15.32;2.67;;;;;;;17.01;56.66;100798.47;6223861;28;20410;-80
2021/05/12 13:41:45;;;;;;;6.57;1.83;;;;;;;16.91;57.44;100798.34;6224064;28;20503;-81
2021/05/12 13:44:46;;;;;;;16.65;2.75;;;;;;;16.81;59.46;100796.56;6224451;28;20392;-80
2021/05/12 13:47:48;;;;;;;4.72;1.67;;;;;;;17.08;58.05;100796.16;6224154;28;20050;-79
2021/05/12 13:50:49;;;;;;;5.15;1.50;;;;;;;17.10;56.48;100791.59;6223656;28;20050;-79